createdAt,value
2023-01-18T00:01:15.703Z,1.20
2023-01-18T00:03:43.812Z,1.20
2023-01-18T00:06:13.529Z,1.20
2023-01-18T00:08:42.289Z,1.20
2023-01-18T00:11:12.633Z,1.20
2023-01-18T00:13:41.022Z,1.20
2023-01-18T00:16:12.537Z,1.20
2023-01-18T00:18:40.881Z,1.20
2023-01-18T00:21:10.430Z,1.20
2023-01-18T00:23:40.156Z,1.20
2023-01-18T00:26:10.137Z,1.10
2023-01-18T00:28:40.607Z,1.10
2023-01-18T00:31:13.286Z,1.10
2023-01-18T00:33:43.889Z,1.10
2023-01-18T00:36:12.917Z,1.20
2023-01-18T00:38:42.637Z,1.20
2023-01-18T00:41:10.765Z,1.20
2023-01-18T00:43:40.564Z,1.20
2023-01-18T00:46:09.987Z,1.20
2023-01-18T00:48:39.796Z,1.20
2023-01-18T00:51:09.319Z,1.10
2023-01-18T00:53:38.032Z,1.20
2023-01-18T00:56:08.706Z,1.20
2023-01-18T00:58:37.508Z,1.20
2023-01-18T01:01:06.459Z,1.10
2023-01-18T01:03:54.819Z,1.10
2023-01-18T01:06:44.411Z,1.10
2023-01-18T01:09:13.211Z,1.10
2023-01-18T01:12:04.192Z,1.00
2023-01-18T01:14:50.720Z,1.10
2023-01-18T01:17:36.192Z,1.10
2023-01-18T01:20:22.849Z,1.20
2023-01-18T01:23:08.527Z,1.10
2023-01-18T01:25:54.688Z,1.10
2023-01-18T01:28:24.181Z,1.10
2023-01-18T01:30:52.381Z,1.10
2023-01-18T01:33:20.433Z,1.10
2023-01-18T01:35:48.509Z,1.10
2023-01-18T01:38:16.519Z,1.10
2023-01-18T01:40:44.530Z,1.10
2023-01-18T01:43:14.334Z,1.10
2023-01-18T01:45:43.836Z,1.00
2023-01-18T01:48:12.415Z,1.10
2023-01-18T01:50:41.533Z,1.00
2023-01-18T01:53:11.884Z,1.10
2023-01-18T01:55:41.166Z,1.00
2023-01-18T01:58:14.174Z,1.00
2023-01-18T02:00:44.364Z,1.00
2023-01-18T02:03:15.633Z,1.00
2023-01-18T02:05:46.047Z,0.90
2023-01-18T02:08:22.322Z,0.90
2023-01-18T02:10:50.586Z,0.90
2023-01-18T02:13:20.491Z,0.90
2023-01-18T02:15:56.729Z,0.90
2023-01-18T02:18:30.089Z,0.90
2023-01-18T02:21:17.749Z,0.90
2023-01-18T02:24:31.835Z,0.80
2023-01-18T02:27:07.222Z,1.00
2023-01-18T02:30:12.706Z,0.90
2023-01-18T02:32:56.017Z,0.90
2023-01-18T02:35:34.703Z,0.90
2023-01-18T02:38:10.854Z,0.80
2023-01-18T02:40:47.625Z,0.80
2023-01-18T02:43:37.483Z,0.80
2023-01-18T02:46:33.709Z,0.80
2023-01-18T02:49:08.827Z,0.80
2023-01-18T02:51:37.430Z,0.80
2023-01-18T02:54:09.474Z,0.90
2023-01-18T02:56:41.266Z,0.80
2023-01-18T02:59:14.425Z,0.80
2023-01-18T03:01:47.836Z,0.80
2023-01-18T03:04:21.628Z,0.80
2023-01-18T03:06:57.293Z,0.80
2023-01-18T03:09:27.061Z,0.70
2023-01-18T03:12:02.130Z,0.70
2023-01-18T03:14:40.218Z,0.70
2023-01-18T03:17:20.292Z,0.70
2023-01-18T03:20:08.624Z,0.70
2023-01-18T03:22:57.185Z,0.70
2023-01-18T03:25:31.581Z,0.70
2023-01-18T03:28:20.823Z,0.70
2023-01-18T03:31:07.651Z,0.70
2023-01-18T03:33:47.187Z,0.70
2023-01-18T03:36:22.540Z,0.70
2023-01-18T03:38:55.739Z,0.70
2023-01-18T03:41:27.768Z,0.70
2023-01-18T03:43:59.069Z,0.60
2023-01-18T03:46:31.469Z,0.60
2023-01-18T03:49:01.658Z,0.60
2023-01-18T03:51:41.808Z,0.60
2023-01-18T03:54:15.803Z,0.70
2023-01-18T03:56:49.709Z,0.60
2023-01-18T03:59:17.999Z,0.50
2023-01-18T04:01:48.165Z,0.50
2023-01-18T04:04:17.595Z,0.50
2023-01-18T04:06:45.610Z,0.50
2023-01-18T04:09:13.822Z,0.50
2023-01-18T04:11:41.832Z,0.40
2023-01-18T04:14:10.073Z,0.50
2023-01-18T04:16:38.090Z,0.50
2023-01-18T04:19:07.384Z,0.60
2023-01-18T04:21:38.446Z,0.60
2023-01-18T04:24:07.070Z,0.60
2023-01-18T04:26:35.178Z,0.60
2023-01-18T04:29:03.408Z,0.60
2023-01-18T04:31:31.966Z,0.60
2023-01-18T04:34:00.053Z,0.60
2023-01-18T04:36:29.318Z,0.70
2023-01-18T04:38:59.317Z,0.60
2023-01-18T04:41:27.554Z,0.70
2023-01-18T04:43:55.567Z,0.60
2023-01-18T04:46:23.757Z,0.60
2023-01-18T04:48:52.556Z,0.60
2023-01-18T04:51:21.335Z,0.60
2023-01-18T04:53:49.579Z,0.60
2023-01-18T04:56:20.832Z,0.50
2023-01-18T04:58:48.896Z,0.60
2023-01-18T05:01:17.039Z,0.60
2023-01-18T05:03:45.438Z,0.60
2023-01-18T05:06:15.345Z,0.50
2023-01-18T05:08:44.217Z,0.50
2023-01-18T05:11:14.121Z,0.50
2023-01-18T05:13:44.326Z,0.60
2023-01-18T05:16:17.616Z,0.50
2023-01-18T05:18:45.987Z,0.50
2023-01-18T05:21:15.240Z,0.50
2023-01-18T05:23:43.648Z,0.50
2023-01-18T05:26:16.514Z,0.50
2023-01-18T05:28:45.993Z,0.50
2023-01-18T05:31:14.869Z,0.50
2023-01-18T05:33:43.108Z,0.40
2023-01-18T05:36:11.647Z,0.40
2023-01-18T05:38:39.701Z,0.50
2023-01-18T05:41:07.796Z,0.50
2023-01-18T05:43:36.117Z,0.50
2023-01-18T05:46:06.049Z,0.50
2023-01-18T05:48:34.222Z,0.50
2023-01-18T05:51:07.717Z,0.50
2023-01-18T05:53:35.943Z,0.40
2023-01-18T05:56:06.187Z,0.40
2023-01-18T05:58:34.249Z,0.50
2023-01-18T06:01:02.356Z,0.40
2023-01-18T06:03:31.805Z,0.40
2023-01-18T06:05:59.827Z,0.40
2023-01-18T06:08:29.170Z,0.30
2023-01-18T06:10:58.436Z,0.40
2023-01-18T06:13:28.914Z,0.40
2023-01-18T06:15:57.049Z,0.30
2023-01-18T06:18:26.878Z,0.50
2023-01-18T06:20:58.137Z,0.40
2023-01-18T06:23:31.555Z,0.40
2023-01-18T06:25:59.569Z,0.30
2023-01-18T06:28:30.260Z,0.30
2023-01-18T06:30:59.216Z,0.30
2023-01-18T06:33:27.517Z,0.30
2023-01-18T06:35:56.963Z,0.40
2023-01-18T06:38:24.987Z,0.30
2023-01-18T06:40:53.018Z,0.30
2023-01-18T06:43:21.748Z,0.20
2023-01-18T06:45:54.079Z,0.20
2023-01-18T06:48:23.936Z,0.20
2023-01-18T06:50:52.749Z,0.20
2023-01-18T06:53:22.585Z,0.20
2023-01-18T06:55:55.125Z,0.20
2023-01-18T06:58:23.141Z,0.20
2023-01-18T07:00:51.794Z,0.20
2023-01-18T07:03:19.836Z,0.20
2023-01-18T07:05:48.107Z,0.10
2023-01-18T07:08:16.168Z,0.10
2023-01-18T07:10:45.533Z,0.10
2023-01-18T07:13:13.552Z,0.10
2023-01-18T07:15:41.622Z,0.10
2023-01-18T07:18:09.615Z,0.10
2023-01-18T07:20:40.125Z,0.10
2023-01-18T07:23:08.106Z,0.10
2023-01-18T07:25:36.206Z,0.10
2023-01-18T07:28:05.955Z,0.10
2023-01-18T07:30:33.980Z,0.10
2023-01-18T07:33:01.980Z,0.10
2023-01-18T07:35:30.141Z,0.10
2023-01-18T07:37:58.414Z,0.10
2023-01-18T07:40:26.450Z,0.00
2023-01-18T07:42:58.685Z,0.10
2023-01-18T07:45:28.226Z,0.00
2023-01-18T07:47:56.377Z,0.00
2023-01-18T07:50:24.399Z,0.00
2023-01-18T07:52:52.424Z,0.00
2023-01-18T07:55:21.552Z,0.00
2023-01-18T07:57:49.714Z,0.00
2023-01-18T08:00:18.395Z,0.10
2023-01-18T08:02:51.519Z,0.10
2023-01-18T08:05:23.765Z,0.10
2023-01-18T08:07:53.572Z,0.10
2023-01-18T08:10:22.260Z,0.10
2023-01-18T08:12:51.141Z,0.20
2023-01-18T08:15:19.169Z,0.30
2023-01-18T08:17:51.102Z,0.30
2023-01-18T08:20:20.796Z,0.30
2023-01-18T08:22:48.886Z,0.30
2023-01-18T08:25:17.640Z,0.30
2023-01-18T08:27:45.632Z,0.30
2023-01-18T08:30:14.338Z,0.30
2023-01-18T08:32:42.358Z,0.30
2023-01-18T08:35:11.797Z,0.30
2023-01-18T08:37:39.831Z,0.30
2023-01-18T08:40:08.847Z,0.30
2023-01-18T08:42:36.865Z,0.30
2023-01-18T08:45:05.419Z,0.30
2023-01-18T08:47:33.873Z,0.30
2023-01-18T08:50:01.890Z,0.40
2023-01-18T08:52:31.251Z,0.40
2023-01-18T08:54:59.251Z,0.40
2023-01-18T08:57:28.697Z,0.50
2023-01-18T08:59:57.058Z,0.50
2023-01-18T09:02:28.419Z,0.50
2023-01-18T09:04:56.559Z,0.50
2023-01-18T09:07:24.603Z,0.60
2023-01-18T09:09:54.003Z,0.60
2023-01-18T09:12:22.045Z,0.50
2023-01-18T09:14:50.067Z,0.60
2023-01-18T09:17:19.355Z,0.70
2023-01-18T09:19:47.410Z,0.70
2023-01-18T09:22:15.546Z,0.80
2023-01-18T09:24:44.200Z,0.90
2023-01-18T09:27:13.908Z,0.90
2023-01-18T09:29:41.945Z,0.90
2023-01-18T09:32:10.613Z,1.00
2023-01-18T09:34:38.629Z,1.00
2023-01-18T09:37:06.695Z,1.00
2023-01-18T09:39:50.470Z,1.10
2023-01-18T09:42:23.003Z,1.10
2023-01-18T09:44:53.690Z,1.20
2023-01-18T09:47:24.502Z,1.20
2023-01-18T09:49:56.672Z,1.20
2023-01-18T09:52:43.648Z,1.20
2023-01-18T09:55:19.686Z,1.30
2023-01-18T09:58:05.659Z,1.30
2023-01-18T10:00:38.021Z,1.40
2023-01-18T10:03:13.169Z,1.40
2023-01-18T10:05:48.383Z,1.50
2023-01-18T10:08:21.937Z,1.60
2023-01-18T10:10:57.079Z,1.60
2023-01-18T10:13:39.365Z,1.70
2023-01-18T10:16:14.923Z,1.70
2023-01-18T10:18:46.609Z,1.80
2023-01-18T10:21:26.353Z,1.90
2023-01-18T10:24:12.468Z,1.90
2023-01-18T10:26:41.192Z,1.90
2023-01-18T10:29:17.104Z,2.20
2023-01-18T10:31:56.495Z,2.20
2023-01-18T10:34:32.789Z,2.40
2023-01-18T10:37:12.454Z,2.50
2023-01-18T10:39:43.775Z,2.60
2023-01-18T10:42:20.787Z,2.70
2023-01-18T10:44:50.352Z,2.80
2023-01-18T10:47:18.987Z,2.90
2023-01-18T10:49:50.337Z,3.00
2023-01-18T10:52:27.160Z,2.90
2023-01-18T10:54:58.047Z,2.90
2023-01-18T10:57:30.803Z,2.80
2023-01-18T11:00:00.707Z,3.00
2023-01-18T11:02:31.405Z,3.00
2023-01-18T11:05:03.639Z,3.20
2023-01-18T11:07:32.212Z,3.20
2023-01-18T11:10:06.436Z,3.30
2023-01-18T11:12:41.069Z,3.30
2023-01-18T11:15:32.064Z,3.40
2023-01-18T11:18:02.495Z,3.40
2023-01-18T11:20:36.595Z,3.50
2023-01-18T11:23:07.463Z,3.50
2023-01-18T11:25:40.127Z,3.60
2023-01-18T11:28:18.240Z,3.60
2023-01-18T11:30:53.645Z,3.60
2023-01-18T11:33:23.036Z,3.70
2023-01-18T11:35:56.280Z,3.70
2023-01-18T11:38:29.255Z,3.80
2023-01-18T11:41:07.260Z,3.60
2023-01-18T11:43:39.352Z,3.60
2023-01-18T11:46:25.736Z,3.70
2023-01-18T11:48:58.880Z,3.80
2023-01-18T11:51:34.557Z,3.80
2023-01-18T11:54:11.259Z,3.90
2023-01-18T11:56:43.376Z,4.00
2023-01-18T11:59:15.678Z,4.00
2023-01-18T12:02:00.324Z,3.90
2023-01-18T12:04:44.518Z,3.90
2023-01-18T12:07:35.599Z,3.90
2023-01-18T12:10:08.595Z,4.00
2023-01-18T12:12:53.460Z,4.10
2023-01-18T12:15:38.771Z,4.10
2023-01-18T12:18:22.842Z,4.10
2023-01-18T12:21:00.645Z,4.20
2023-01-18T12:24:13.667Z,4.10
2023-01-18T12:26:50.908Z,4.20
2023-01-18T12:29:56.546Z,4.30
2023-01-18T12:32:44.933Z,4.20
2023-01-18T12:35:28.780Z,4.20
2023-01-18T12:38:08.154Z,4.30
2023-01-18T12:40:50.866Z,4.30
2023-01-18T12:43:32.535Z,4.30
2023-01-18T12:46:07.183Z,4.30
2023-01-18T12:48:43.767Z,4.40
2023-01-18T12:51:17.160Z,4.40
2023-01-18T12:53:50.033Z,4.50
2023-01-18T12:56:21.456Z,4.40
2023-01-18T12:58:55.484Z,4.40
2023-01-18T13:01:27.251Z,4.40
2023-01-18T13:04:02.907Z,4.40
2023-01-18T13:06:35.091Z,4.30
2023-01-18T13:09:07.996Z,4.40
2023-01-18T13:11:38.500Z,4.30
2023-01-18T13:14:15.458Z,4.30
2023-01-18T13:16:51.368Z,4.30
2023-01-18T13:19:24.930Z,4.20
2023-01-18T13:22:04.638Z,4.30
2023-01-18T13:24:47.367Z,4.40
2023-01-18T13:27:17.577Z,4.30
2023-01-18T13:29:46.882Z,4.40
2023-01-18T13:32:24.013Z,4.30
2023-01-18T13:35:17.870Z,4.20
2023-01-18T13:37:50.871Z,4.10
2023-01-18T13:40:38.635Z,4.20
2023-01-18T13:43:27.647Z,4.20
2023-01-18T13:46:04.385Z,4.10
2023-01-18T13:48:45.438Z,4.10
2023-01-18T13:51:52.024Z,4.10
2023-01-18T13:55:01.217Z,4.00
2023-01-18T13:57:31.070Z,4.10
2023-01-18T13:59:59.981Z,4.10
2023-01-18T14:02:34.046Z,4.10
2023-01-18T14:05:09.532Z,4.00
2023-01-18T14:07:43.088Z,4.00
2023-01-18T14:10:26.779Z,4.00
2023-01-18T14:12:57.576Z,4.00
2023-01-18T14:15:30.328Z,3.80
2023-01-18T14:17:59.501Z,3.80
2023-01-18T14:20:49.050Z,3.90
2023-01-18T14:23:29.594Z,3.90
2023-01-18T14:26:03.074Z,3.80
2023-01-18T14:28:36.575Z,3.60
2023-01-18T14:31:05.776Z,3.60
2023-01-18T14:33:36.448Z,3.60
2023-01-18T14:36:08.353Z,3.60
2023-01-18T14:38:36.541Z,3.70
2023-01-18T14:41:08.867Z,3.50
2023-01-18T14:43:44.264Z,3.60
2023-01-18T14:46:15.972Z,3.60
2023-01-18T14:48:51.432Z,3.70
2023-01-18T14:51:22.204Z,3.50
2023-01-18T14:53:54.216Z,3.50
2023-01-18T14:56:26.910Z,3.40
2023-01-18T14:58:57.707Z,3.40
2023-01-18T15:01:29.782Z,3.40
2023-01-18T15:04:00.384Z,3.30
2023-01-18T15:06:40.254Z,3.30
2023-01-18T15:09:10.083Z,3.20
2023-01-18T15:11:41.166Z,3.20
2023-01-18T15:14:15.381Z,3.10
2023-01-18T15:16:43.687Z,3.10
2023-01-18T15:19:16.714Z,3.10
2023-01-18T15:21:45.955Z,3.00
2023-01-18T15:24:18.067Z,2.90
2023-01-18T15:26:48.732Z,2.90
2023-01-18T15:29:18.431Z,3.00
2023-01-18T15:31:52.822Z,3.00
2023-01-18T15:34:28.379Z,3.00
2023-01-18T15:36:58.159Z,3.00
2023-01-18T15:39:26.921Z,3.00
2023-01-18T15:41:57.940Z,2.90
2023-01-18T15:44:43.136Z,3.00
2023-01-18T15:47:22.776Z,2.90
2023-01-18T15:49:52.706Z,2.90
2023-01-18T15:52:37.282Z,2.90
2023-01-18T15:55:07.227Z,2.90
2023-01-18T15:57:37.571Z,2.80
2023-01-18T16:00:06.861Z,2.80
2023-01-18T16:02:35.160Z,2.70
2023-01-18T16:05:20.542Z,2.70
2023-01-18T16:07:51.534Z,2.70
2023-01-18T16:10:30.384Z,2.80
2023-01-18T16:13:24.033Z,2.60
2023-01-18T16:16:14.192Z,2.60
2023-01-18T16:18:44.462Z,2.60
2023-01-18T16:21:16.260Z,2.50
2023-01-18T16:23:47.395Z,2.50
2023-01-18T16:26:15.735Z,2.50
2023-01-18T16:28:45.174Z,2.40
2023-01-18T16:31:13.491Z,2.40
2023-01-18T16:33:41.642Z,2.40
2023-01-18T16:36:18.891Z,2.40
2023-01-18T16:38:47.090Z,2.30
2023-01-18T16:41:16.934Z,2.30
2023-01-18T16:43:48.079Z,2.20
2023-01-18T16:46:16.284Z,2.20
2023-01-18T16:48:44.310Z,2.20
2023-01-18T16:51:16.072Z,2.20
2023-01-18T16:53:44.184Z,2.20
2023-01-18T16:56:15.679Z,2.20
2023-01-18T16:58:43.740Z,2.20
2023-01-18T17:01:15.796Z,2.20
2023-01-18T17:03:44.622Z,2.20
2023-01-18T17:06:18.058Z,2.20
2023-01-18T17:08:47.543Z,2.10
2023-01-18T17:11:15.767Z,2.10
2023-01-18T17:13:44.833Z,2.10
2023-01-18T17:16:18.601Z,2.10
2023-01-18T17:18:47.927Z,2.00
2023-01-18T17:21:16.479Z,2.10
2023-01-18T17:23:45.273Z,2.10
2023-01-18T17:26:15.924Z,2.00
2023-01-18T17:28:44.605Z,2.00
2023-01-18T17:31:12.816Z,2.00
2023-01-18T17:33:43.697Z,2.00
2023-01-18T17:36:11.755Z,2.00
2023-01-18T17:38:39.771Z,2.00
2023-01-18T17:41:11.328Z,1.90
2023-01-18T17:43:41.450Z,1.80
2023-01-18T17:46:10.097Z,1.80
2023-01-18T17:48:38.686Z,1.80
2023-01-18T17:51:09.301Z,1.80
2023-01-18T17:53:37.708Z,1.80
2023-01-18T17:56:08.290Z,1.80
2023-01-18T17:58:36.501Z,1.80
2023-01-18T18:01:10.215Z,1.80
2023-01-18T18:03:38.826Z,1.80
2023-01-18T18:06:09.241Z,1.80
2023-01-18T18:08:39.308Z,1.70
2023-01-18T18:11:09.192Z,1.70
2023-01-18T18:13:37.944Z,1.70
2023-01-18T18:16:07.466Z,1.70
2023-01-18T18:18:36.643Z,1.70
2023-01-18T18:21:06.247Z,1.60
2023-01-18T18:23:36.209Z,1.60
2023-01-18T18:26:05.533Z,1.70
2023-01-18T18:28:34.339Z,1.70
2023-01-18T18:31:02.771Z,1.70
2023-01-18T18:33:32.919Z,1.60
2023-01-18T18:36:01.869Z,1.70
2023-01-18T18:38:29.931Z,1.70
2023-01-18T18:41:03.781Z,1.70
2023-01-18T18:43:31.785Z,1.70
2023-01-18T18:45:59.874Z,1.70
2023-01-18T18:48:27.938Z,1.70
2023-01-18T18:50:56.207Z,1.70
2023-01-18T18:53:37.006Z,1.60
2023-01-18T18:56:09.569Z,1.70
2023-01-18T18:58:38.141Z,1.70
2023-01-18T19:01:07.164Z,1.70
2023-01-18T19:03:35.992Z,1.70
2023-01-18T19:06:04.058Z,1.70
2023-01-18T19:08:32.059Z,1.60
2023-01-18T19:11:00.138Z,1.60
2023-01-18T19:13:29.552Z,1.70
2023-01-18T19:15:57.869Z,1.70
2023-01-18T19:18:25.911Z,1.70
2023-01-18T19:20:54.007Z,1.70
2023-01-18T19:23:22.063Z,1.70
2023-01-18T19:25:50.103Z,1.70
2023-01-18T19:28:18.346Z,1.70
2023-01-18T19:30:47.723Z,1.70
2023-01-18T19:33:16.635Z,1.60
2023-01-18T19:35:46.147Z,1.60
2023-01-18T19:38:15.145Z,1.70
2023-01-18T19:40:43.688Z,1.60
2023-01-18T19:43:11.971Z,1.60
2023-01-18T19:45:40.662Z,1.60
2023-01-18T19:48:10.377Z,1.60
2023-01-18T19:50:38.678Z,1.60
2023-01-18T19:53:06.971Z,1.60
2023-01-18T19:55:37.199Z,1.60
2023-01-18T19:58:06.447Z,1.60
2023-01-18T20:00:34.985Z,1.50
2023-01-18T20:03:03.625Z,1.60
2023-01-18T20:05:33.637Z,1.60
2023-01-18T20:08:01.884Z,1.60
2023-01-18T20:10:30.191Z,1.60
2023-01-18T20:12:59.966Z,1.60
2023-01-18T20:15:28.517Z,1.60
2023-01-18T20:17:56.916Z,1.70
2023-01-18T20:20:32.493Z,1.70
2023-01-18T20:23:04.115Z,1.70
2023-01-18T20:25:33.414Z,1.70
2023-01-18T20:28:03.965Z,1.70
2023-01-18T20:30:32.596Z,1.60
2023-01-18T20:33:01.896Z,1.70
2023-01-18T20:35:30.341Z,1.70
2023-01-18T20:37:59.151Z,1.70
2023-01-18T20:40:28.800Z,1.70
2023-01-18T20:42:57.216Z,1.70
2023-01-18T20:45:25.551Z,1.70
2023-01-18T20:47:53.898Z,1.70
2023-01-18T20:50:23.236Z,1.70
2023-01-18T20:52:51.843Z,1.70
2023-01-18T20:55:20.132Z,1.80
2023-01-18T20:57:52.101Z,1.80
2023-01-18T21:00:21.231Z,1.80
2023-01-18T21:02:49.796Z,1.80
2023-01-18T21:05:18.290Z,1.80
2023-01-18T21:07:46.431Z,1.80
2023-01-18T21:10:14.631Z,1.80
2023-01-18T21:12:42.790Z,1.80
2023-01-18T21:15:13.155Z,1.70
2023-01-18T21:17:41.529Z,1.70
2023-01-18T21:20:13.595Z,1.70
2023-01-18T21:22:42.583Z,1.70
2023-01-18T21:25:11.232Z,1.70
2023-01-18T21:27:43.323Z,1.70
2023-01-18T21:30:15.637Z,1.70
2023-01-18T21:32:44.203Z,1.70
2023-01-18T21:35:13.877Z,1.70
2023-01-18T21:37:42.840Z,1.60
2023-01-18T21:40:12.346Z,1.70
2023-01-18T21:42:58.118Z,1.70
2023-01-18T21:45:45.578Z,1.60
2023-01-18T21:48:13.914Z,1.70
2023-01-18T21:50:59.895Z,1.70
2023-01-18T21:53:45.365Z,1.70
2023-01-18T21:56:13.815Z,1.70
2023-01-18T21:58:54.191Z,1.70
2023-01-18T22:01:26.491Z,1.70
2023-01-18T22:04:13.554Z,1.70
2023-01-18T22:06:41.901Z,1.70
2023-01-18T22:09:10.153Z,1.60
2023-01-18T22:11:38.928Z,1.70
2023-01-18T22:14:08.666Z,1.60
2023-01-18T22:16:38.913Z,1.60
2023-01-18T22:19:07.480Z,1.60
2023-01-18T22:21:35.948Z,1.60
2023-01-18T22:24:04.333Z,1.70
2023-01-18T22:26:34.220Z,1.60
2023-01-18T22:29:03.836Z,1.60
2023-01-18T22:31:32.258Z,1.60
2023-01-18T22:34:03.871Z,1.60
2023-01-18T22:36:35.504Z,1.60
2023-01-18T22:39:03.853Z,1.50
2023-01-18T22:41:32.573Z,1.60
2023-01-18T22:44:00.991Z,1.60
2023-01-18T22:46:29.383Z,1.60
2023-01-18T22:48:58.779Z,1.50
2023-01-18T22:51:28.159Z,1.50
2023-01-18T22:53:56.671Z,1.60
2023-01-18T22:56:26.235Z,1.60
2023-01-18T22:58:54.431Z,1.60
2023-01-18T23:01:24.914Z,1.60
2023-01-18T23:03:55.831Z,1.60
2023-01-18T23:06:23.906Z,1.60
2023-01-18T23:08:54.336Z,1.70
2023-01-18T23:11:23.829Z,1.70
2023-01-18T23:14:11.467Z,1.70
2023-01-18T23:16:57.129Z,1.70
2023-01-18T23:19:28.157Z,1.80
2023-01-18T23:21:57.591Z,1.80
2023-01-18T23:24:27.886Z,1.80
2023-01-18T23:26:55.906Z,1.80
2023-01-18T23:29:24.008Z,1.80
2023-01-18T23:31:52.059Z,1.80
2023-01-18T23:34:20.229Z,1.80
2023-01-18T23:36:48.283Z,1.80
2023-01-18T23:39:33.622Z,1.90
2023-01-18T23:42:20.466Z,1.90
2023-01-18T23:45:05.862Z,1.90
2023-01-18T23:47:51.285Z,1.90
2023-01-18T23:50:36.629Z,1.90
2023-01-18T23:53:21.927Z,1.90
2023-01-18T23:55:52.771Z,1.90
2023-01-18T23:58:22.181Z,1.90
